Time;durP1;ratioP1;P1;durP2;ratioP2;P2;SDS_P1;SDS_P2;PMS_P1;PMS_P2;Temp;Humidity;BMP_temperature;BMP_pressure;BME280_temperature;BME280_humidity;BME280_pressure;Samples;Min_cycle;Max_cycle;Signal;HPM_P1;HPM_P2
2021/12/06 00:00:15;;;;;;;31.90;17.77;;;1.40;99.90;;;;;;5132959;27;20100;-75
2021/12/06 00:02:42;;;;;;;27.17;16.37;;;1.40;99.90;;;;;;5132844;27;20051;-77
2021/12/06 00:05:10;;;;;;;29.97;15.87;;;1.40;99.90;;;;;;5132287;27;20055;-76
2021/12/06 00:07:38;;;;;;;36.83;18.10;;;1.40;99.90;;;;;;5132637;27;20039;-72
2021/12/06 00:10:05;;;;;;;28.27;16.47;;;1.40;99.90;;;;;;5132903;27;20464;-72
2021/12/06 00:12:32;;;;;;;29.47;17.20;;;1.40;99.90;;;;;;5132866;27;20043;-73
2021/12/06 00:14:59;;;;;;;33.17;16.30;;;1.30;99.90;;;;;;5132138;27;20068;-74
2021/12/06 00:17:27;;;;;;;31.33;16.37;;;1.30;99.90;;;;;;5132625;27;20047;-74
2021/12/06 00:19:54;;;;;;;28.70;16.60;;;1.40;99.90;;;;;;5132594;27;20061;-74
2021/12/06 00:22:23;;;;;;;30.03;17.60;;;1.30;99.90;;;;;;5132590;27;20047;-75
2021/12/06 00:24:51;;;;;;;25.63;16.73;;;1.40;99.90;;;;;;5132084;27;20055;-75
2021/12/06 00:27:18;;;;;;;27.67;16.63;;;1.40;99.90;;;;;;5132359;27;20449;-74
2021/12/06 00:29:45;;;;;;;27.93;16.83;;;1.30;99.90;;;;;;5132724;27;20117;-74
2021/12/06 00:32:12;;;;;;;29.73;18.93;;;1.30;99.90;;;;;;5132511;27;20138;-75
2021/12/06 00:34:41;;;;;;;28.77;17.20;;;1.30;99.90;;;;;;5131981;27;20555;-75
2021/12/06 00:37:19;;;;;;;35.27;18.33;;;1.40;99.90;;;;;;5132658;27;20092;-75
2021/12/06 00:39:47;;;;;;;28.57;17.20;;;1.30;99.90;;;;;;5132551;27;20139;-75
2021/12/06 00:42:15;;;;;;;28.37;15.67;;;1.30;99.90;;;;;;5132434;27;20039;-75
2021/12/06 00:44:42;;;;;;;32.07;19.80;;;1.30;99.90;;;;;;5131899;27;20107;-74
2021/12/06 00:47:09;;;;;;;29.47;17.27;;;1.30;99.90;;;;;;5132357;27;20039;-75
2021/12/06 00:49:36;;;;;;;38.63;19.17;;;1.30;99.90;;;;;;5132717;27;20486;-75
2021/12/06 00:52:05;;;;;;;25.23;16.50;;;1.30;99.90;;;;;;5132182;27;20494;-72
2021/12/06 00:54:35;;;;;;;30.40;16.00;;;1.30;99.90;;;;;;5131710;27;20156;-72
2021/12/06 00:57:03;;;;;;;27.17;15.47;;;1.30;99.90;;;;;;5132377;27;20104;-73
2021/12/06 00:59:30;;;;;;;32.30;17.13;;;1.30;99.90;;;;;;5132377;27;20112;-72
2021/12/06 01:01:57;;;;;;;28.20;18.43;;;1.30;99.90;;;;;;5132655;27;20039;-75
2021/12/06 01:04:24;;;;;;;32.73;20.27;;;1.30;99.90;;;;;;5135662;27;20043;-73
2021/12/06 01:06:51;;;;;;;31.90;16.03;;;1.30;99.90;;;;;;5136307;27;20051;-73
2021/12/06 01:09:20;;;;;;;31.43;15.87;;;1.30;99.90;;;;;;5135826;27;20047;-74
2021/12/06 01:11:46;;;;;;;35.70;18.03;;;1.30;99.90;;;;;;5135929;27;20100;-75
2021/12/06 01:14:13;;;;;;;27.10;15.67;;;1.30;99.90;;;;;;5135178;27;20043;-74
2021/12/06 01:16:40;;;;;;;27.43;15.90;;;1.20;99.90;;;;;;5135990;27;20096;-76
2021/12/06 01:19:07;;;;;;;29.67;17.70;;;1.20;99.90;;;;;;5135837;27;20103;-75
2021/12/06 01:21:43;;;;;;;25.00;17.10;;;1.20;99.90;;;;;;5135636;27;20100;-75
2021/12/06 01:24:12;;;;;;;30.87;15.10;;;1.20;99.90;;;;;;5135192;27;20043;-75
2021/12/06 01:27:08;;;;;;;25.07;16.10;;;1.20;99.90;;;;;;5135580;27;20139;-76
2021/12/06 01:30:01;;;;;;;25.10;17.33;;;1.20;99.90;;;;;;5135648;27;20067;-75
2021/12/06 01:32:58;;;;;;;26.97;17.50;;;1.10;99.90;;;;;;5135610;27;20051;-74
2021/12/06 01:40:42;;;;;;;27.63;18.43;;;1.10;99.90;;;;;;5135884;27;20117;-74
2021/12/06 01:43:10;;;;;;;26.50;15.97;;;1.10;99.90;;;;;;5135431;27;20100;-74
2021/12/06 01:45:37;;;;;;;27.20;16.17;;;1.10;99.90;;;;;;5134930;27;20088;-72
2021/12/06 01:48:04;;;;;;;32.53;16.57;;;1.00;99.90;;;;;;5135720;27;20096;-74
2021/12/06 01:50:31;;;;;;;28.37;18.10;;;0.90;99.90;;;;;;5135120;27;20483;-75
2021/12/06 01:53:00;;;;;;;27.30;18.90;;;1.00;99.90;;;;;;5135425;27;20047;-74
2021/12/06 01:55:30;;;;;;;25.03;17.33;;;1.00;99.90;;;;;;5134566;27;20483;-74
2021/12/06 01:58:00;;;;;;;28.93;17.13;;;0.90;99.90;;;;;;5135250;27;20051;-74
2021/12/06 02:00:34;;;;;;;25.13;15.83;;;0.90;99.90;;;;;;5135329;27;20096;-75
2021/12/06 02:03:01;;;;;;;34.50;17.90;;;0.90;99.90;;;;;;5136193;27;20300;-72
2021/12/06 02:05:28;;;;;;;33.67;18.93;;;0.90;99.90;;;;;;5135221;27;20043;-72
2021/12/06 02:07:55;;;;;;;30.87;17.27;;;0.80;99.90;;;;;;5135541;27;20530;-72
2021/12/06 02:10:23;;;;;;;25.03;15.33;;;0.80;99.90;;;;;;5135358;27;20440;-73
2021/12/06 02:12:52;;;;;;;19.27;14.17;;;0.90;99.90;;;;;;5135109;27;20043;-73
2021/12/06 02:15:33;;;;;;;24.10;14.97;;;0.90;99.90;;;;;;5134597;27;20491;-72
2021/12/06 02:18:09;;;;;;;28.27;16.57;;;0.90;99.90;;;;;;5135001;27;20047;-72
2021/12/06 02:20:44;;;;;;;26.03;16.90;;;0.90;99.90;;;;;;5134345;27;20473;-74
2021/12/06 02:23:12;;;;;;;26.80;16.80;;;0.90;99.90;;;;;;5134364;27;20487;-73
2021/12/06 02:25:39;;;;;;;29.83;17.07;;;0.80;99.90;;;;;;5133974;27;20457;-72
2021/12/06 02:28:05;;;;;;;28.13;16.37;;;0.80;99.90;;;;;;5134279;27;20441;-73
2021/12/06 02:30:32;;;;;;;28.80;16.60;;;0.80;99.90;;;;;;5134356;27;20051;-75
2021/12/06 02:33:00;;;;;;;24.40;16.80;;;0.80;99.90;;;;;;5134301;27;20051;-74
2021/12/06 02:35:27;;;;;;;23.83;15.53;;;0.80;99.90;;;;;;5133594;27;20547;-74
2021/12/06 02:37:54;;;;;;;29.23;16.93;;;0.80;99.90;;;;;;5134371;27;20139;-75
2021/12/06 02:40:27;;;;;;;27.37;17.40;;;0.70;99.90;;;;;;5134189;27;20099;-74
2021/12/06 02:42:55;;;;;;;24.13;16.90;;;0.70;99.90;;;;;;5134273;27;20051;-74
2021/12/06 02:45:25;;;;;;;32.80;18.83;;;0.70;99.90;;;;;;5133366;27;20486;-75
2021/12/06 02:47:53;;;;;;;26.47;16.63;;;0.60;99.90;;;;;;5134135;27;20057;-74
2021/12/06 02:50:21;;;;;;;28.13;16.33;;;0.60;99.90;;;;;;5134357;27;20053;-73
2021/12/06 02:52:48;;;;;;;29.67;17.87;;;0.60;99.90;;;;;;5134190;27;20047;-73
2021/12/06 02:55:30;;;;;;;24.80;14.47;;;0.50;99.90;;;;;;5133269;27;20039;-74
2021/12/06 02:57:59;;;;;;;34.20;18.20;;;0.50;99.90;;;;;;5133777;27;20482;-76
2021/12/06 03:00:27;;;;;;;22.93;17.23;;;0.60;99.90;;;;;;5133708;27;20055;-75
2021/12/06 03:02:53;;;;;;;24.97;17.07;;;0.50;99.90;;;;;;5133903;27;20047;-75
2021/12/06 03:05:20;;;;;;;31.87;17.73;;;0.50;99.90;;;;;;5133232;27;20107;-75
2021/12/06 03:07:52;;;;;;;27.17;17.17;;;0.50;99.90;;;;;;5133659;27;20047;-75
2021/12/06 03:10:19;;;;;;;22.65;15.90;;;0.50;99.90;;;;;;5133827;27;20092;-74
2021/12/06 03:12:45;;;;;;;24.60;16.23;;;0.50;99.90;;;;;;5133490;27;20475;-74
2021/12/06 03:15:16;;;;;;;26.53;16.67;;;0.40;99.90;;;;;;5132835;27;20047;-73
2021/12/06 03:17:42;;;;;;;30.23;18.67;;;0.50;99.90;;;;;;5133607;27;20159;-73
2021/12/06 03:20:13;;;;;;;29.30;17.77;;;0.60;99.90;;;;;;5133487;27;20047;-72
2021/12/06 03:22:41;;;;;;;27.00;19.27;;;0.50;99.90;;;;;;5133502;27;20130;-73
2021/12/06 03:25:09;;;;;;;24.10;17.00;;;0.50;99.90;;;;;;5132341;27;20043;-73
2021/12/06 03:27:36;;;;;;;25.37;16.40;;;0.50;99.90;;;;;;5133234;27;20047;-72
2021/12/06 03:30:05;;;;;;;23.87;14.20;;;0.50;99.90;;;;;;5133356;27;20042;-73
2021/12/06 03:32:33;;;;;;;28.43;18.30;;;0.60;99.90;;;;;;5133259;27;20495;-73
2021/12/06 03:35:01;;;;;;;27.27;15.50;;;0.60;99.90;;;;;;5132929;27;20456;-72
2021/12/06 03:37:27;;;;;;;24.63;16.17;;;0.60;99.90;;;;;;5133174;27;20119;-74
2021/12/06 03:39:54;;;;;;;23.90;16.43;;;0.60;99.90;;;;;;5133043;27;20096;-74
2021/12/06 03:42:24;;;;;;;26.27;17.00;;;0.60;99.90;;;;;;5132991;27;20556;-75
2021/12/06 03:44:51;;;;;;;28.53;18.30;;;0.60;99.90;;;;;;5132556;27;20043;-73
2021/12/06 03:47:22;;;;;;;25.63;17.20;;;0.60;99.90;;;;;;5133028;27;20088;-75
2021/12/06 03:49:50;;;;;;;20.13;16.33;;;0.60;99.90;;;;;;5133435;27;20039;-76
2021/12/06 03:52:16;;;;;;;30.00;18.00;;;0.60;99.90;;;;;;5132948;27;20039;-76
2021/12/06 03:54:44;;;;;;;27.73;17.07;;;0.60;99.90;;;;;;5132298;27;20043;-74
2021/12/06 03:57:11;;;;;;;29.93;18.53;;;0.70;99.90;;;;;;5132890;27;20074;-75
2021/12/06 03:59:38;;;;;;;26.40;16.97;;;0.60;99.90;;;;;;5132638;27;20490;-74
2021/12/06 04:02:06;;;;;;;26.43;16.60;;;0.60;99.90;;;;;;5132755;27;20047;-75
2021/12/06 04:04:32;;;;;;;23.40;15.80;;;0.50;99.90;;;;;;5132272;27;20047;-74
2021/12/06 04:07:00;;;;;;;23.60;17.07;;;0.50;99.90;;;;;;5132786;27;20096;-74
2021/12/06 04:09:27;;;;;;;28.87;17.77;;;0.60;99.90;;;;;;5132697;27;20091;-76
2021/12/06 04:11:54;;;;;;;22.13;17.40;;;0.60;99.90;;;;;;5132743;27;20047;-75
2021/12/06 04:14:21;;;;;;;30.27;16.90;;;0.80;99.90;;;;;;5132331;27;20050;-74
2021/12/06 04:16:47;;;;;;;27.83;16.93;;;0.70;99.90;;;;;;5132653;27;20092;-75
2021/12/06 04:19:14;;;;;;;24.47;14.63;;;0.80;99.90;;;;;;5132668;27;20046;-74
2021/12/06 04:21:43;;;;;;;22.23;14.73;;;0.70;99.90;;;;;;5132630;27;20456;-74
2021/12/06 04:24:12;;;;;;;27.43;15.60;;;0.70;99.90;;;;;;5132224;27;20047;-73
2021/12/06 04:26:39;;;;;;;25.07;15.07;;;0.70;99.90;;;;;;5132705;27;20043;-73
2021/12/06 04:29:08;;;;;;;35.27;16.80;;;0.70;99.90;;;;;;5132692;27;20054;-73
2021/12/06 04:31:39;;;;;;;23.10;15.43;;;0.70;99.90;;;;;;5132469;27;20047;-73
2021/12/06 04:34:06;;;;;;;32.80;16.52;;;0.70;99.90;;;;;;5132154;27;20107;-73
2021/12/06 04:36:33;;;;;;;25.03;16.33;;;0.70;99.90;;;;;;5132430;27;20039;-73
2021/12/06 04:39:00;;;;;;;22.90;15.40;;;0.70;99.90;;;;;;5136452;27;20051;-73
2021/12/06 04:41:28;;;;;;;26.80;16.53;;;0.70;99.90;;;;;;5136482;27;20073;-73
2021/12/06 04:43:55;;;;;;;22.57;15.87;;;0.70;99.90;;;;;;5136331;27;20050;-73
2021/12/06 04:46:21;;;;;;;26.23;15.90;;;0.60;99.90;;;;;;5135952;27;20482;-73
2021/12/06 04:48:48;;;;;;;24.83;16.60;;;0.60;99.90;;;;;;5136402;27;20096;-75
2021/12/06 04:51:15;;;;;;;21.30;15.00;;;0.60;99.90;;;;;;5137373;27;20122;-75
2021/12/06 04:53:43;;;;;;;23.53;15.53;;;0.60;99.90;;;;;;5136126;27;20089;-76
2021/12/06 04:56:16;;;;;;;32.47;19.60;;;0.60;99.90;;;;;;5135550;27;20043;-73
2021/12/06 04:58:49;;;;;;;28.17;16.63;;;0.70;99.90;;;;;;5137665;27;20103;-76
2021/12/06 05:01:19;;;;;;;26.60;17.40;;;0.70;99.90;;;;;;5136572;27;20108;-75
2021/12/06 05:03:46;;;;;;;33.30;16.53;;;0.70;99.90;;;;;;5136483;27;20101;-75
2021/12/06 05:06:17;;;;;;;31.83;20.17;;;0.60;99.90;;;;;;5135910;27;20043;-77
2021/12/06 05:08:46;;;;;;;26.17;18.00;;;0.70;99.90;;;;;;5136277;27;20054;-77
2021/12/06 05:11:14;;;;;;;28.73;16.93;;;0.70;99.90;;;;;;5135705;27;20502;-75
2021/12/06 05:13:46;;;;;;;31.10;19.07;;;0.70;99.90;;;;;;5135584;27;20047;-78
2021/12/06 05:16:13;;;;;;;28.60;17.73;;;0.70;99.90;;;;;;5135201;27;20047;-77
2021/12/06 05:18:40;;;;;;;21.57;15.33;;;0.70;99.90;;;;;;5135956;27;20070;-75
2021/12/06 05:21:07;;;;;;;26.13;16.27;;;0.60;99.90;;;;;;5135736;27;20051;-76
2021/12/06 05:23:34;;;;;;;27.70;17.90;;;0.60;99.90;;;;;;5135817;27;20047;-74
2021/12/06 05:26:02;;;;;;;26.83;16.07;;;0.60;99.90;;;;;;5134686;27;20134;-74
2021/12/06 05:28:32;;;;;;;25.90;17.80;;;0.60;99.90;;;;;;5135890;27;20043;-77
2021/12/06 05:31:01;;;;;;;35.47;15.73;;;0.60;99.90;;;;;;5135821;27;20347;-76
2021/12/06 05:33:31;;;;;;;31.80;18.07;;;0.60;99.90;;;;;;5135696;27;20043;-71
2021/12/06 05:36:00;;;;;;;25.53;14.20;;;0.60;99.90;;;;;;5134830;27;20092;-73
2021/12/06 05:38:29;;;;;;;25.57;15.73;;;0.60;99.90;;;;;;5137358;27;20111;-76
2021/12/06 05:40:58;;;;;;;25.40;16.17;;;0.60;99.90;;;;;;5135336;27;20058;-73
2021/12/06 05:43:25;;;;;;;26.83;17.80;;;0.60;99.90;;;;;;5136025;27;20069;-75
2021/12/06 05:45:53;;;;;;;26.23;17.33;;;0.50;99.90;;;;;;5135501;27;20055;-74
2021/12/06 05:48:22;;;;;;;22.73;17.50;;;0.60;99.90;;;;;;5134958;27;20053;-76
2021/12/06 05:50:51;;;;;;;25.77;15.77;;;0.70;99.90;;;;;;5135544;27;20070;-78
2021/12/06 05:53:18;;;;;;;25.03;18.23;;;0.60;99.90;;;;;;5136770;27;20073;-78
2021/12/06 05:55:47;;;;;;;22.10;14.63;;;0.60;99.90;;;;;;5138513;27;20051;-78
2021/12/06 05:58:16;;;;;;;24.63;15.80;;;0.70;99.90;;;;;;5139738;27;20039;-77
2021/12/06 06:00:43;;;;;;;20.33;12.53;;;0.70;99.90;;;;;;5137288;27;20096;-75
2021/12/06 06:03:11;;;;;;;26.40;16.37;;;0.60;99.90;;;;;;5137765;27;20043;-78
2021/12/06 06:05:39;;;;;;;24.07;14.53;;;0.60;99.90;;;;;;5138181;27;20103;-79
2021/12/06 06:08:07;;;;;;;22.03;15.80;;;0.60;99.90;;;;;;5137574;27;20046;-75
2021/12/06 06:10:34;;;;;;;21.23;14.83;;;0.60;99.90;;;;;;5135256;27;20047;-75
2021/12/06 06:13:02;;;;;;;24.43;15.17;;;0.60;99.90;;;;;;5134793;27;20051;-72
2021/12/06 06:15:30;;;;;;;23.37;15.23;;;0.50;99.90;;;;;;5134204;27;20043;-74
2021/12/06 06:17:57;;;;;;;23.37;16.83;;;0.50;99.90;;;;;;5134589;27;20482;-75
2021/12/06 06:20:26;;;;;;;24.53;15.80;;;0.60;99.90;;;;;;5134957;27;20051;-76
2021/12/06 06:22:55;;;;;;;25.20;14.53;;;0.60;99.90;;;;;;5135274;27;20051;-75
2021/12/06 06:25:25;;;;;;;24.83;15.37;;;0.60;99.90;;;;;;5136080;27;20053;-76
2021/12/06 06:27:52;;;;;;;31.30;18.97;;;0.60;99.90;;;;;;5135096;27;20071;-78
2021/12/06 06:30:19;;;;;;;29.23;15.67;;;0.50;99.90;;;;;;5134748;27;20168;-75
2021/12/06 06:32:46;;;;;;;24.70;15.13;;;0.50;99.90;;;;;;5134445;27;20096;-77
2021/12/06 06:35:14;;;;;;;28.57;16.87;;;0.50;99.90;;;;;;5133895;27;20043;-77
2021/12/06 06:37:41;;;;;;;25.00;15.77;;;0.50;99.90;;;;;;5134225;27;20103;-75
2021/12/06 06:40:11;;;;;;;22.83;15.80;;;0.50;99.90;;;;;;5134167;27;20091;-76
2021/12/06 06:42:38;;;;;;;28.10;14.63;;;0.50;99.90;;;;;;5134008;27;20047;-78
2021/12/06 06:45:06;;;;;;;23.80;16.73;;;0.50;99.90;;;;;;5133776;27;20070;-77
2021/12/06 06:47:33;;;;;;;26.63;15.50;;;0.50;99.90;;;;;;5135084;27;20047;-75
2021/12/06 06:50:00;;;;;;;25.30;13.60;;;0.50;99.90;;;;;;5135866;27;20062;-77
2021/12/06 06:52:27;;;;;;;27.30;14.17;;;0.60;99.90;;;;;;5135398;27;20453;-78
2021/12/06 06:54:53;;;;;;;35.97;21.93;;;0.60;99.90;;;;;;5134895;27;20043;-78
2021/12/06 06:57:21;;;;;;;23.73;15.17;;;0.60;99.90;;;;;;5138847;27;20106;-78
2021/12/06 06:59:48;;;;;;;22.50;15.57;;;0.60;99.90;;;;;;5134251;27;20076;-77
2021/12/06 07:02:15;;;;;;;30.43;17.40;;;0.60;99.90;;;;;;5133841;27;20055;-71
2021/12/06 07:04:42;;;;;;;29.93;16.37;;;0.70;99.90;;;;;;5133233;27;20047;-75
2021/12/06 07:07:09;;;;;;;17.50;13.10;;;0.70;99.90;;;;;;5133457;27;20482;-70
2021/12/06 07:09:36;;;;;;;25.27;16.90;;;0.70;99.90;;;;;;5134395;27;20080;-79
2021/12/06 07:12:03;;;;;;;24.60;16.13;;;0.70;99.90;;;;;;5133727;27;20051;-70
2021/12/06 07:14:31;;;;;;;18.73;13.90;;;0.80;99.90;;;;;;5133252;27;20050;-71
2021/12/06 07:16:58;;;;;;;22.67;16.03;;;0.80;99.90;;;;;;5133390;27;20460;-72
2021/12/06 07:19:24;;;;;;;23.67;14.23;;;0.80;99.90;;;;;;5133596;27;20055;-75
2021/12/06 07:21:51;;;;;;;21.87;16.00;;;0.80;99.90;;;;;;5134790;27;20547;-74
2021/12/06 07:24:18;;;;;;;26.60;16.97;;;0.80;99.90;;;;;;5137258;27;20051;-75
2021/12/06 07:26:44;;;;;;;25.90;14.70;;;0.80;99.90;;;;;;5150209;27;20043;-77
2021/12/06 07:29:11;;;;;;;24.73;16.73;;;0.80;99.90;;;;;;5147630;27;20107;-79
2021/12/06 07:31:39;;;;;;;23.27;15.23;;;0.90;99.90;;;;;;5143652;27;20047;-81
2021/12/06 07:34:06;;;;;;;21.33;16.00;;;0.90;99.90;;;;;;5140873;27;20058;-72
2021/12/06 07:36:32;;;;;;;21.70;13.77;;;0.90;99.90;;;;;;5134008;27;20047;-77
2021/12/06 07:38:59;;;;;;;28.13;16.00;;;0.90;99.90;;;;;;5133447;27;20088;-76
2021/12/06 07:41:28;;;;;;;24.00;14.83;;;0.90;99.90;;;;;;5135852;27;20508;-76
2021/12/06 07:43:55;;;;;;;24.80;16.03;;;0.90;99.90;;;;;;5132843;27;20043;-76
2021/12/06 07:46:22;;;;;;;19.70;14.53;;;0.90;99.90;;;;;;5132809;27;20051;-75
2021/12/06 07:48:52;;;;;;;27.40;16.03;;;1.00;99.90;;;;;;5133042;27;20099;-74
2021/12/06 07:51:20;;;;;;;41.80;26.07;;;1.00;99.90;;;;;;5133198;27;20046;-76
2021/12/06 07:53:47;;;;;;;28.83;16.77;;;1.00;99.90;;;;;;5132813;27;20100;-77
2021/12/06 07:56:13;;;;;;;28.37;16.03;;;1.00;99.90;;;;;;5132650;27;20043;-72
2021/12/06 07:58:40;;;;;;;25.77;16.40;;;1.10;99.90;;;;;;5133064;27;20410;-80
2021/12/06 08:01:07;;;;;;;21.50;15.53;;;1.10;99.90;;;;;;5136428;27;20054;-78
2021/12/06 08:03:36;;;;;;;23.67;14.77;;;1.10;99.90;;;;;;5134024;27;20043;-77
2021/12/06 08:06:05;;;;;;;55.93;31.27;;;1.10;99.90;;;;;;5133816;27;20054;-80
2021/12/06 08:08:33;;;;;;;52.37;30.30;;;1.20;99.90;;;;;;5135075;27;20051;-71
2021/12/06 08:11:05;;;;;;;50.50;26.87;;;1.30;99.90;;;;;;5133532;27;20047;-76
2021/12/06 08:13:33;;;;;;;45.60;27.87;;;1.50;99.90;;;;;;5137056;27;20096;-75
2021/12/06 08:16:03;;;;;;;26.00;19.47;;;1.60;99.90;;;;;;5136392;27;20095;-76
2021/12/06 08:18:30;;;;;;;28.70;16.40;;;1.60;99.90;;;;;;5137100;27;20099;-75
2021/12/06 08:20:58;;;;;;;27.53;16.40;;;1.60;99.90;;;;;;5137158;27;20108;-77
2021/12/06 08:23:26;;;;;;;24.87;15.63;;;1.60;99.90;;;;;;5137362;27;20039;-73
2021/12/06 08:25:53;;;;;;;26.67;15.87;;;1.60;99.90;;;;;;5136456;27;20047;-70
2021/12/06 08:28:23;;;;;;;19.10;13.10;;;1.60;99.90;;;;;;5136750;27;20051;-70
2021/12/06 08:30:51;;;;;;;26.13;15.83;;;1.70;99.90;;;;;;5136614;27;20139;-71
2021/12/06 08:33:19;;;;;;;23.83;16.10;;;1.70;99.90;;;;;;5136573;27;20559;-72
2021/12/06 08:35:52;;;;;;;25.33;16.03;;;1.70;99.90;;;;;;5135804;27;20047;-74
2021/12/06 08:38:20;;;;;;;24.73;15.27;;;1.80;99.90;;;;;;5136590;27;20095;-74
2021/12/06 08:40:50;;;;;;;21.00;16.23;;;1.80;99.90;;;;;;5137275;27;20047;-77
2021/12/06 08:43:19;;;;;;;29.00;15.17;;;1.90;99.90;;;;;;5137724;27;20065;-76
2021/12/06 08:45:49;;;;;;;22.93;14.97;;;2.00;99.90;;;;;;5136710;27;20422;-77
2021/12/06 08:48:16;;;;;;;28.43;16.70;;;2.00;99.90;;;;;;5138431;27;20051;-78
2021/12/06 08:50:43;;;;;;;25.53;15.00;;;2.10;99.90;;;;;;5137065;27;20101;-78
2021/12/06 08:53:10;;;;;;;24.70;14.30;;;2.10;99.90;;;;;;5136207;27;20054;-75
2021/12/06 08:55:36;;;;;;;23.70;14.70;;;2.20;99.90;;;;;;5135324;27;20047;-76
2021/12/06 08:58:05;;;;;;;34.17;20.50;;;2.20;99.90;;;;;;5136014;27;20396;-76
2021/12/06 09:00:35;;;;;;;28.93;19.23;;;2.40;99.90;;;;;;5135786;27;20050;-76
2021/12/06 09:03:02;;;;;;;28.17;15.47;;;2.40;99.90;;;;;;5136644;27;20055;-78
2021/12/06 09:05:35;;;;;;;21.07;14.40;;;2.50;99.90;;;;;;5135640;27;20130;-76
2021/12/06 09:08:03;;;;;;;21.77;13.30;;;2.60;99.90;;;;;;5136046;27;20047;-72
2021/12/06 09:10:31;;;;;;;23.97;13.77;;;2.70;99.90;;;;;;5135711;27;20503;-75
2021/12/06 09:12:58;;;;;;;22.57;12.93;;;2.70;99.90;;;;;;5135815;27;20043;-73
2021/12/06 09:15:27;;;;;;;25.93;14.90;;;2.80;99.90;;;;;;5135105;27;20050;-72
2021/12/06 09:17:56;;;;;;;29.27;17.60;;;2.90;99.90;;;;;;5135779;27;20051;-73
2021/12/06 09:20:28;;;;;;;24.33;14.73;;;3.00;99.90;;;;;;5136132;27;20103;-77
2021/12/06 09:22:55;;;;;;;18.40;11.47;;;3.10;99.90;;;;;;5135709;27;20054;-74
2021/12/06 09:25:22;;;;;;;22.00;13.43;;;3.20;99.90;;;;;;5135200;27;20050;-72
2021/12/06 09:27:50;;;;;;;20.63;12.57;;;3.30;99.90;;;;;;5135366;27;20491;-72
2021/12/06 09:30:21;;;;;;;20.33;11.90;;;3.30;99.90;;;;;;5135207;27;20043;-74
2021/12/06 09:32:49;;;;;;;20.08;13.82;;;3.30;99.90;;;;;;5135606;27;20057;-75
2021/12/06 09:35:21;;;;;;;26.70;12.50;;;3.30;99.90;;;;;;5134648;27;20055;-73
2021/12/06 09:37:49;;;;;;;23.47;12.83;;;3.40;99.90;;;;;;5135326;27;20047;-74
2021/12/06 09:40:16;;;;;;;25.83;13.87;;;3.40;99.90;;;;;;5135021;27;20574;-74
2021/12/06 09:42:43;;;;;;;15.87;12.97;;;3.40;99.90;;;;;;5134859;27;20051;-75
2021/12/06 09:45:13;;;;;;;18.40;10.30;;;3.30;99.90;;;;;;5135730;27;20096;-75
2021/12/06 09:47:40;;;;;;;17.13;11.77;;;3.20;99.90;;;;;;5135494;27;20047;-72
2021/12/06 09:50:09;;;;;;;23.27;12.30;;;3.10;99.90;;;;;;5135109;27;20049;-73
2021/12/06 09:52:36;;;;;;;20.07;12.77;;;3.10;99.90;;;;;;5135093;27;20043;-72
2021/12/06 09:55:04;;;;;;;18.67;12.13;;;3.10;99.90;;;;;;5134178;27;20075;-73
2021/12/06 09:57:31;;;;;;;16.17;10.17;;;2.90;99.90;;;;;;5134918;27;20079;-75
2021/12/06 09:59:58;;;;;;;17.43;11.00;;;2.90;99.90;;;;;;5135064;27;20058;-74
2021/12/06 10:02:26;;;;;;;19.13;11.67;;;2.90;99.90;;;;;;5134616;27;20051;-74
2021/12/06 10:04:55;;;;;;;20.63;12.13;;;3.00;99.90;;;;;;5134003;27;20103;-76
2021/12/06 10:07:27;;;;;;;19.50;10.37;;;3.00;99.90;;;;;;5134978;27;20043;-77
2021/12/06 10:09:55;;;;;;;16.43;10.17;;;3.10;99.90;;;;;;5134731;27;20103;-76
2021/12/06 10:12:23;;;;;;;17.03;10.30;;;3.00;99.90;;;;;;5134470;27;20074;-74
2021/12/06 10:14:52;;;;;;;14.83;10.40;;;2.90;99.90;;;;;;5134022;27;20039;-74
2021/12/06 10:17:20;;;;;;;15.23;9.43;;;2.90;99.90;;;;;;5134200;27;20053;-73
2021/12/06 10:19:49;;;;;;;14.87;9.80;;;3.00;99.90;;;;;;5134611;27;20043;-72
2021/12/06 10:22:16;;;;;;;13.27;9.60;;;3.00;99.90;;;;;;5134188;27;20129;-72
2021/12/06 10:24:50;;;;;;;15.97;10.73;;;3.00;99.90;;;;;;5133882;27;20043;-72
2021/12/06 10:27:17;;;;;;;16.00;10.93;;;2.90;99.90;;;;;;5133751;27;20047;-72
2021/12/06 10:29:53;;;;;;;12.67;9.30;;;2.90;99.90;;;;;;5134177;27;20047;-75
2021/12/06 10:32:21;;;;;;;18.90;9.20;;;3.00;99.90;;;;;;5134958;27;20112;-77
2021/12/06 10:34:51;;;;;;;10.57;8.07;;;3.00;99.90;;;;;;5132462;27;20047;-75
2021/12/06 10:37:35;;;;;;;17.63;8.63;;;2.90;99.90;;;;;;5134170;27;20116;-72
2021/12/06 10:40:08;;;;;;;13.80;9.43;;;2.90;99.90;;;;;;5134001;27;20092;-75
2021/12/06 10:42:39;;;;;;;16.10;9.70;;;2.90;99.90;;;;;;5134338;27;20134;-74
2021/12/06 10:45:09;;;;;;;14.37;9.47;;;2.90;99.90;;;;;;5133569;27;20105;-74
2021/12/06 10:47:36;;;;;;;15.50;9.30;;;2.80;99.90;;;;;;5135136;27;20388;-76
2021/12/06 10:50:13;;;;;;;11.40;9.30;;;2.90;99.90;;;;;;5138075;27;20039;-76
2021/12/06 10:52:51;;;;;;;12.70;9.03;;;2.90;99.90;;;;;;5133945;27;20043;-75
2021/12/06 10:55:21;;;;;;;10.70;8.30;;;2.90;99.90;;;;;;5133402;27;20475;-74
2021/12/06 10:57:51;;;;;;;14.87;8.53;;;2.90;99.90;;;;;;5134163;27;20120;-75
2021/12/06 11:00:33;;;;;;;14.87;8.33;;;2.80;99.90;;;;;;5134488;27;20047;-76
2021/12/06 11:03:01;;;;;;;16.27;10.43;;;2.80;99.90;;;;;;5134066;27;20293;-77
2021/12/06 11:05:34;;;;;;;13.03;7.47;;;2.90;99.90;;;;;;5133312;27;20051;-76
2021/12/06 11:08:15;;;;;;;16.80;10.33;;;2.90;99.90;;;;;;5133821;27;20505;-77
2021/12/06 11:10:47;;;;;;;12.60;7.93;;;2.90;99.90;;;;;;5133838;27;20055;-77
2021/12/06 11:13:23;;;;;;;10.93;8.47;;;2.80;99.90;;;;;;5134141;27;20058;-75
2021/12/06 11:16:22;;;;;;;18.10;10.77;;;2.90;99.90;;;;;;5133541;27;20043;-77
2021/12/06 11:18:52;;;;;;;13.63;9.13;;;2.80;99.90;;;;;;5069765;28;20106;-77
2021/12/06 11:21:24;;;;;;;13.43;9.47;;;2.80;99.90;;;;;;5120782;27;20055;-76
2021/12/06 11:24:15;;;;;;;18.25;10.25;;;2.90;99.90;;;;;;5133518;27;20047;-76
2021/12/06 11:26:53;;;;;;;11.85;7.60;;;2.90;99.90;;;;;;5135667;27;20650;-77
2021/12/06 11:29:24;;;;;;;15.03;9.30;;;3.00;99.90;;;;;;5133216;27;20532;-78
2021/12/06 11:32:02;;;;;;;20.80;12.50;;;3.00;99.90;;;;;;5132898;27;20515;-75
2021/12/06 11:34:33;;;;;;;15.90;10.77;;;2.90;99.90;;;;;;5132738;27;20104;-77
2021/12/06 11:37:00;;;;;;;17.67;9.10;;;3.00;99.90;;;;;;5133337;27;20510;-76
2021/12/06 11:39:28;;;;;;;14.07;9.27;;;3.00;99.90;;;;;;5133235;27;20075;-77
2021/12/06 11:42:00;;;;;;;23.93;13.77;;;3.00;99.90;;;;;;5133281;27;20051;-76
2021/12/06 11:44:33;;;;;;;36.40;18.67;;;3.10;99.90;;;;;;5132096;27;20117;-75
2021/12/06 11:47:08;;;;;;;29.80;19.37;;;3.10;99.90;;;;;;5132317;27;20051;-75
2021/12/06 11:49:39;;;;;;;14.40;9.10;;;3.10;99.90;;;;;;5132805;27;20049;-76
2021/12/06 11:52:07;;;;;;;22.20;14.40;;;3.10;99.90;;;;;;5133008;27;20043;-76
2021/12/06 11:54:42;;;;;;;19.90;13.43;;;3.20;99.90;;;;;;5132072;27;20039;-75
2021/12/06 11:57:14;;;;;;;26.03;17.67;;;3.20;99.90;;;;;;5132976;27;20059;-74
2021/12/06 11:59:49;;;;;;;27.23;14.00;;;3.20;99.90;;;;;;5133914;27;20087;-76
2021/12/06 12:02:29;;;;;;;31.77;15.13;;;3.10;99.90;;;;;;5141477;27;20047;-78
2021/12/06 12:05:10;;;;;;;24.97;15.67;;;3.20;99.90;;;;;;5140509;27;20085;-78
2021/12/06 12:07:56;;;;;;;22.77;12.90;;;3.20;99.90;;;;;;5133587;27;20054;-75
2021/12/06 12:10:31;;;;;;;26.20;15.17;;;3.20;99.90;;;;;;5132822;27;20043;-76
2021/12/06 12:13:00;;;;;;;33.20;16.60;;;3.20;99.90;;;;;;5133135;27;20050;-73
2021/12/06 12:15:27;;;;;;;24.10;15.67;;;3.20;99.90;;;;;;5132511;27;20047;-75
2021/12/06 12:17:54;;;;;;;29.83;16.03;;;3.20;99.90;;;;;;5132711;27;20051;-73
2021/12/06 12:20:23;;;;;;;31.07;18.37;;;3.30;99.90;;;;;;5132597;27;20043;-73
2021/12/06 12:22:54;;;;;;;24.43;13.70;;;3.40;99.90;;;;;;5132544;27;20133;-72
2021/12/06 12:25:27;;;;;;;18.90;10.90;;;3.40;99.90;;;;;;5132104;27;20051;-74
2021/12/06 12:28:00;;;;;;;16.50;9.87;;;3.40;99.90;;;;;;5132605;27;20047;-73
2021/12/06 12:30:32;;;;;;;24.13;14.90;;;3.40;99.90;;;;;;5132503;27;20043;-74
2021/12/06 12:33:01;;;;;;;16.63;9.57;;;3.40;99.90;;;;;;5132296;27;20491;-73
2021/12/06 12:35:30;;;;;;;13.47;8.87;;;3.50;99.90;;;;;;5131646;27;20047;-73
2021/12/06 12:37:57;;;;;;;14.60;9.50;;;3.50;99.90;;;;;;5132542;27;20571;-73
2021/12/06 12:40:26;;;;;;;14.63;9.63;;;3.50;99.90;;;;;;5132631;27;20077;-74
2021/12/06 12:42:58;;;;;;;16.33;8.77;;;3.30;99.90;;;;;;5132304;27;20096;-72
2021/12/06 12:45:32;;;;;;;13.80;8.03;;;3.30;99.90;;;;;;5132389;27;20047;-73
2021/12/06 12:47:58;;;;;;;12.03;7.10;;;3.30;99.90;;;;;;5132755;27;20043;-76
2021/12/06 12:50:29;;;;;;;16.27;9.10;;;3.30;99.90;;;;;;5132307;27;20043;-73
2021/12/06 12:52:59;;;;;;;18.77;9.02;;;3.30;99.90;;;;;;5134129;27;20043;-72